Time;durP1;ratioP1;P1;durP2;ratioP2;P2;SDS_P1;SDS_P2;PMS_P1;PMS_P2;Temp;Humidity;BMP_temperature;BMP_pressure;BME280_temperature;BME280_humidity;BME280_pressure;Samples;Min_cycle;Max_cycle;Signal;HPM_P1;HPM_P2
2022/01/09 00:00:11;;;;;;;2.17;1.20;;;;;;;4.94;77.99;97464.13;339935;29;1088;-84
2022/01/09 00:00:29;;;;;;;1.48;1.20;;;;;;;5.00;78.43;97456.13;338157;29;1571;-84
2022/01/09 00:00:42;;;;;;;2.42;1.20;;;;;;;4.90;78.60;97465.16;337761;29;1444;-84
2022/01/09 00:00:54;;;;;;;2.45;1.15;;;;;;;4.87;78.56;97454.97;338134;29;1576;-84
2022/01/09 00:01:07;;;;;;;2.05;1.20;;;;;;;4.95;78.50;97463.19;338679;29;2018;-84
2022/01/09 00:01:22;;;;;;;1.73;1.20;;;;;;;5.02;78.43;97456.88;338795;29;1040;-84
2022/01/09 00:01:36;;;;;;;1.48;1.10;;;;;;;4.92;78.38;97463.34;339320;29;1115;-84
2022/01/09 00:01:48;;;;;;;1.50;1.00;;;;;;;4.93;78.29;97459.84;338847;29;732;-84
2022/01/09 00:02:00;;;;;;;2.30;1.00;;;;;;;4.93;78.82;97460.72;341176;28;1043;-84
2022/01/09 00:02:12;;;;;;;2.17;0.90;;;;;;;4.90;79.25;97455.69;343065;28;1175;-84
2022/01/09 00:02:24;;;;;;;1.70;0.95;;;;;;;4.93;78.67;97459.84;343411;28;1138;-84
2022/01/09 00:02:36;;;;;;;2.00;1.13;;;;;;;4.98;79.03;97455.34;342615;28;1222;-84
2022/01/09 00:02:48;;;;;;;2.15;1.20;;;;;;;4.95;78.73;97460.63;340817;28;1718;-84
2022/01/09 00:03:00;;;;;;;2.15;1.20;;;;;;;5.00;78.43;97456.13;341090;28;1145;-84
2022/01/09 00:03:13;;;;;;;2.35;1.20;;;;;;;5.09;78.38;97455.72;342301;28;1132;-84
2022/01/09 00:03:25;;;;;;;1.98;1.10;;;;;;;5.10;78.88;97446.22;342671;28;1423;-84
2022/01/09 00:03:37;;;;;;;2.25;1.08;;;;;;;5.02;78.63;97454.31;342574;28;1251;-84
2022/01/09 00:03:50;;;;;;;2.13;0.90;;;;;;;4.98;78.68;97453.59;342530;28;1818;-84
2022/01/09 00:04:03;;;;;;;2.53;0.90;;;;;;;5.05;78.16;97446.44;342541;28;1122;-83
2022/01/09 00:04:15;;;;;;;2.55;1.00;;;;;;;5.05;78.56;97449.03;343094;28;1207;-84
2022/01/09 00:04:27;;;;;;;3.13;1.10;;;;;;;5.04;78.83;97451.66;343615;28;1099;-84
2022/01/09 00:04:39;;;;;;;2.67;1.08;;;;;;;5.08;78.50;97448.88;343512;28;869;-84
2022/01/09 00:04:52;;;;;;;2.05;1.00;;;;;;;5.16;78.23;97451.94;345020;28;1214;-83
2022/01/09 00:05:05;;;;;;;1.77;1.08;;;;;;;5.26;78.50;97448.94;344163;28;1233;-84
2022/01/09 00:05:22;;;;;;;1.45;1.02;;;;;;;5.33;77.80;97447.72;344350;28;850;-84
2022/01/09 00:05:35;;;;;;;1.52;1.10;;;;;;;5.35;78.06;97441.63;344355;28;802;-84
2022/01/09 00:05:47;;;;;;;1.52;1.05;;;;;;;5.33;77.58;97446.00;343917;28;1016;-84
2022/01/09 00:05:59;;;;;;;2.17;1.10;;;;;;;5.33;77.72;97437.44;344226;28;1097;-84
2022/01/09 00:06:11;;;;;;;2.60;1.10;;;;;;;5.24;78.48;97440.44;343996;28;1210;-84
2022/01/09 00:06:23;;;;;;;2.17;1.05;;;;;;;5.30;77.28;97438.41;342205;28;1829;-84
2022/01/09 00:06:43;;;;;;;1.20;1.10;;;;;;;5.35;77.36;97438.19;342451;28;742;-84
2022/01/09 00:06:55;;;;;;;2.00;1.00;;;;;;;5.35;77.62;97446.78;342006;28;1979;-84
2022/01/09 00:07:07;;;;;;;2.20;0.98;;;;;;;5.37;77.51;97444.09;341268;28;2736;-84
2022/01/09 00:07:19;;;;;;;1.98;1.10;;;;;;;5.35;77.86;97438.19;340481;29;2885;-84
2022/01/09 00:07:32;;;;;;;2.08;1.17;;;;;;;5.45;77.48;97447.16;342455;29;1554;-83
2022/01/09 00:07:44;;;;;;;1.98;1.13;;;;;;;5.42;77.21;97436.19;340930;29;1476;-84
2022/01/09 00:07:56;;;;;;;1.70;1.17;;;;;;;5.46;77.30;97441.09;342763;28;1193;-84
2022/01/09 00:08:08;;;;;;;1.95;1.20;;;;;;;5.45;77.55;97442.00;343777;28;1076;-84
2022/01/09 00:08:20;;;;;;;2.22;1.15;;;;;;;5.35;77.36;97431.31;343867;28;1096;-84
2022/01/09 00:08:32;;;;;;;2.13;1.05;;;;;;;5.43;76.86;97443.81;342554;28;1044;-84
2022/01/09 00:08:44;;;;;;;1.92;1.10;;;;;;;5.34;77.32;97434.78;342356;28;953;-84
2022/01/09 00:08:56;;;;;;;3.05;1.13;;;;;;;5.39;77.61;97437.13;342962;28;1049;-84
2022/01/09 00:09:08;;;;;;;4.93;1.25;;;;;;;5.46;77.36;97437.69;344190;28;737;-84
2022/01/09 00:09:20;;;;;;;4.53;1.23;;;;;;;5.53;76.94;97433.91;343548;28;1016;-84
2022/01/09 00:09:32;;;;;;;3.28;1.20;;;;;;;5.59;77.08;97436.19;343540;28;1155;-84
2022/01/09 00:09:45;;;;;;;1.63;1.20;;;;;;;5.67;76.92;97434.06;343376;28;1182;-84
2022/01/09 00:09:57;;;;;;;1.58;1.15;;;;;;;5.60;76.94;97430.97;342906;28;1093;-84
2022/01/09 00:10:10;;;;;;;2.03;1.10;;;;;;;5.51;77.29;97435.72;344662;28;1347;-84
2022/01/09 00:10:22;;;;;;;2.03;1.10;;;;;;;5.54;76.78;97439.00;342676;28;1067;-84
2022/01/09 00:10:35;;;;;;;1.73;1.00;;;;;;;5.49;77.35;97434.97;342730;28;1058;-84
2022/01/09 00:10:47;;;;;;;1.95;0.98;;;;;;;5.43;77.48;97430.09;340847;28;1559;-84
2022/01/09 00:10:59;;;;;;;1.88;1.08;;;;;;;5.40;77.29;97431.91;341376;28;1160;-84
2022/01/09 00:11:13;;;;;;;2.10;1.20;;;;;;;5.36;76.96;97432.16;340013;29;1039;-84
2022/01/09 00:11:26;;;;;;;2.45;1.20;;;;;;;5.31;77.29;97428.94;340154;29;1115;-84
2022/01/09 00:11:38;;;;;;;2.15;1.15;;;;;;;5.35;77.49;97430.47;338653;29;1194;-83
2022/01/09 00:11:53;;;;;;;1.77;1.00;;;;;;;5.33;77.51;97427.97;339294;29;1057;-84
2022/01/09 00:12:05;;;;;;;1.92;1.00;;;;;;;5.23;77.99;97424.13;339740;29;1208;-84
2022/01/09 00:12:17;;;;;;;2.17;1.15;;;;;;;5.19;77.84;97426.03;339817;29;1221;-84
2022/01/09 00:12:29;;;;;;;1.82;1.20;;;;;;;5.18;78.32;97429.50;341112;29;1161;-84
2022/01/09 00:12:41;;;;;;;1.63;1.10;;;;;;;5.18;78.26;97419.22;340818;29;1180;-83
2022/01/09 00:12:53;;;;;;;1.70;1.15;;;;;;;5.14;78.34;97422.84;340368;29;1167;-84
2022/01/09 00:13:05;;;;;;;1.75;1.25;;;;;;;5.24;77.76;97425.81;340056;29;1119;-85
2022/01/09 00:13:17;;;;;;;2.17;1.30;;;;;;;5.28;78.45;97423.94;339476;29;2342;-84
2022/01/09 00:13:29;;;;;;;2.13;1.27;;;;;;;5.31;78.06;97426.34;340136;29;890;-84
2022/01/09 00:13:41;;;;;;;1.83;1.20;;;;;;;5.31;77.91;97427.22;341667;28;1590;-84
2022/01/09 00:13:54;;;;;;;1.98;1.33;;;;;;;5.36;78.18;97427.00;342578;28;1230;-84
2022/01/09 00:14:06;;;;;;;2.15;1.40;;;;;;;5.43;77.36;97425.78;343922;28;1200;-84
2022/01/09 00:14:18;;;;;;;2.25;1.20;;;;;;;5.46;77.77;97428.22;343816;28;1000;-84
2022/01/09 00:14:30;;;;;;;1.60;1.00;;;;;;;5.47;77.85;97427.28;341402;29;758;-84
2022/01/09 00:14:42;;;;;;;1.60;1.10;;;;;;;5.49;77.54;97422.91;341315;28;1070;-83
2022/01/09 00:14:54;;;;;;;1.85;1.10;;;;;;;5.34;77.87;97419.31;340852;28;1940;-84
2022/01/09 00:15:07;;;;;;;2.10;1.20;;;;;;;5.27;78.09;97427.41;341378;29;1105;-83
2022/01/09 00:15:19;;;;;;;2.17;1.15;;;;;;;5.36;77.96;97421.84;342511;29;886;-83
2022/01/09 00:15:32;;;;;;;1.65;1.00;;;;;;;5.34;78.08;97423.66;341653;29;1131;-84
2022/01/09 00:15:44;;;;;;;1.58;1.10;;;;;;;5.34;77.61;97429.63;341986;28;1289;-84
2022/01/09 00:15:57;;;;;;;1.58;1.10;;;;;;;5.45;77.47;97423.97;341141;29;1203;-83
2022/01/09 00:16:09;;;;;;;1.58;1.00;;;;;;;5.51;77.12;97421.09;340445;29;1060;-83
2022/01/09 00:16:21;;;;;;;2.33;1.10;;;;;;;5.58;77.90;97426.81;341363;29;1175;-83
2022/01/09 00:16:33;;;;;;;2.55;1.17;;;;;;;5.58;77.33;97419.06;342017;28;1132;-84
2022/01/09 00:16:48;;;;;;;1.80;1.20;;;;;;;5.49;78.00;97417.75;342555;28;1725;-83
2022/01/09 00:17:00;;;;;;;2.00;1.30;;;;;;;5.33;77.88;97416.81;342318;28;1053;-83
2022/01/09 00:17:12;;;;;;;1.70;1.10;;;;;;;5.43;77.90;97412.91;342352;28;1118;-83
2022/01/09 00:17:24;;;;;;;1.38;0.98;;;;;;;5.38;77.85;97414.88;342627;28;1200;-83
2022/01/09 00:17:37;;;;;;;1.15;0.90;;;;;;;5.48;77.27;97416.09;342852;28;780;-84
2022/01/09 00:17:49;;;;;;;1.73;1.10;;;;;;;5.45;77.52;97416.22;343584;28;948;-83
2022/01/09 00:18:01;;;;;;;2.00;1.25;;;;;;;5.39;77.84;97416.53;344182;28;1973;-84
2022/01/09 00:18:14;;;;;;;2.42;1.25;;;;;;;5.35;77.49;97415.84;342340;28;1020;-84
2022/01/09 00:18:26;;;;;;;1.98;1.10;;;;;;;5.34;77.80;97415.94;341504;29;1188;-84
2022/01/09 00:18:38;;;;;;;1.88;1.00;;;;;;;5.32;78.28;97415.16;341388;28;1501;-84
2022/01/09 00:18:51;;;;;;;2.15;1.00;;;;;;;5.27;78.17;97411.97;342818;28;992;-84
2022/01/09 00:19:02;;;;;;;2.90;1.00;;;;;;;5.25;78.47;97412.06;342202;28;1140;-83
2022/01/09 00:19:14;;;;;;;2.80;0.93;;;;;;;5.13;78.42;97408.31;342719;28;1186;-84
2022/01/09 00:19:26;;;;;;;2.38;1.00;;;;;;;5.14;78.53;97409.97;342536;28;1075;-84
2022/01/09 00:19:38;;;;;;;1.77;1.00;;;;;;;5.13;78.53;97416.03;342480;28;1100;-84
2022/01/09 00:19:51;;;;;;;1.52;0.90;;;;;;;5.08;78.92;97412.81;342882;28;742;-84
2022/01/09 00:20:05;;;;;;;2.13;1.05;;;;;;;5.13;78.62;97416.03;343711;28;1145;-84
2022/01/09 00:20:17;;;;;;;2.35;1.10;;;;;;;5.12;78.69;97413.53;342862;28;811;-84
2022/01/09 00:20:29;;;;;;;2.03;1.05;;;;;;;5.29;78.04;97410.16;341633;28;1822;-84
2022/01/09 00:20:41;;;;;;;2.30;1.10;;;;;;;5.37;78.15;97413.19;341040;28;1147;-84
2022/01/09 00:20:53;;;;;;;2.47;1.15;;;;;;;5.42;77.95;97408.66;340211;29;1173;-84
2022/01/09 00:21:06;;;;;;;2.25;1.08;;;;;;;5.45;77.82;97411.06;339511;29;1169;-84
2022/01/09 00:21:18;;;;;;;1.58;0.93;;;;;;;5.46;78.36;97412.75;339397;29;950;-84
2022/01/09 00:21:30;;;;;;;2.10;1.08;;;;;;;5.55;77.81;97416.63;339940;29;1193;-84
2022/01/09 00:21:42;;;;;;;2.30;1.10;;;;;;;5.63;77.46;97409.34;340218;29;840;-84
2022/01/09 00:21:55;;;;;;;2.28;1.20;;;;;;;5.49;77.54;97412.59;341586;29;727;-83
2022/01/09 00:22:08;;;;;;;1.70;1.15;;;;;;;5.39;77.50;97412.22;338865;29;772;-84
2022/01/09 00:22:32;;;;;;;1.50;1.10;;;;;;;5.35;77.68;97405.56;339027;29;1241;-84
2022/01/09 00:22:50;;;;;;;2.38;1.10;;;;;;;5.46;77.81;97406.78;340869;28;1926;-84
2022/01/09 00:23:02;;;;;;;2.40;1.20;;;;;;;5.41;77.91;97399.25;340872;28;1137;-83
2022/01/09 00:23:14;;;;;;;2.05;1.20;;;;;;;5.47;77.50;97409.25;342839;28;1116;-83
2022/01/09 00:23:26;;;;;;;2.16;1.18;;;;;;;5.51;77.39;97405.63;341441;28;1269;-84
2022/01/09 00:23:38;;;;;;;2.20;0.93;;;;;;;5.45;78.09;97399.94;341440;29;1059;-84
2022/01/09 00:23:50;;;;;;;3.22;1.10;;;;;;;5.43;77.37;97406.91;341335;29;1137;-84
2022/01/09 00:24:02;;;;;;;2.60;1.10;;;;;;;5.46;77.86;97402.47;340855;29;1168;-84
2022/01/09 00:24:14;;;;;;;1.70;0.93;;;;;;;5.47;78.02;97398.97;340459;28;1635;-84
2022/01/09 00:24:26;;;;;;;1.40;0.82;;;;;;;5.53;78.19;97403.84;339755;29;980;-84
2022/01/09 00:24:38;;;;;;;2.08;0.82;;;;;;;5.53;77.71;97397.84;339958;29;1024;-84
2022/01/09 00:24:51;;;;;;;1.88;0.90;;;;;;;5.57;78.10;97407.09;340232;29;785;-84
2022/01/09 00:25:05;;;;;;;1.17;0.90;;;;;;;5.67;77.29;97399.75;340240;29;1078;-84
2022/01/09 00:25:20;;;;;;;1.98;0.90;;;;;;;5.73;77.30;97402.00;341784;28;1237;-84
2022/01/09 00:25:33;;;;;;;2.60;0.90;;;;;;;5.66;78.04;97393.75;341296;29;912;-84
2022/01/09 00:25:45;;;;;;;2.80;1.13;;;;;;;5.67;77.46;97394.59;340927;29;1310;-84
2022/01/09 00:26:03;;;;;;;2.53;1.10;;;;;;;5.65;77.62;97391.25;341214;28;1071;-84
2022/01/09 00:26:15;;;;;;;2.35;1.02;;;;;;;5.69;77.46;97392.75;341580;29;1066;-83
2022/01/09 00:26:27;;;;;;;2.22;1.08;;;;;;;5.69;77.34;97392.75;341658;28;1167;-84
2022/01/09 00:26:39;;;;;;;2.05;1.02;;;;;;;5.67;77.69;97392.00;342731;28;1212;-84
2022/01/09 00:26:51;;;;;;;1.70;1.00;;;;;;;5.63;77.64;97393.06;342794;28;1080;-84
2022/01/09 00:27:03;;;;;;;1.45;1.00;;;;;;;5.63;77.50;97393.06;342706;28;1009;-84
2022/01/09 00:27:15;;;;;;;1.80;1.10;;;;;;;5.70;76.88;97397.84;342838;28;726;-84
2022/01/09 00:27:27;;;;;;;2.22;1.10;;;;;;;5.73;77.44;97391.72;343003;28;741;-84
2022/01/09 00:27:39;;;;;;;2.00;1.02;;;;;;;5.74;76.79;97390.81;341977;28;1471;-84
2022/01/09 00:27:52;;;;;;;1.90;1.00;;;;;;;5.75;77.11;97389.88;342043;28;1217;-83
2022/01/09 00:28:04;;;;;;;1.73;1.10;;;;;;;5.75;76.95;97392.47;342153;28;1061;-84
2022/01/09 00:28:16;;;;;;;1.52;1.00;;;;;;;5.80;76.89;97390.50;342434;28;1035;-84
2022/01/09 00:28:28;;;;;;;1.75;1.00;;;;;;;5.74;77.21;97388.22;343957;28;995;-84
2022/01/09 00:28:40;;;;;;;1.95;0.98;;;;;;;5.73;77.55;97389.94;342434;28;1056;-84
2022/01/09 00:28:52;;;;;;;2.45;1.00;;;;;;;5.71;77.43;97386.63;342626;28;1076;-84
2022/01/09 00:29:06;;;;;;;2.28;0.98;;;;;;;5.76;76.91;97389.00;341093;29;1202;-83
2022/01/09 00:29:18;;;;;;;1.52;0.82;;;;;;;5.86;76.35;97394.53;341705;28;926;-84
2022/01/09 00:29:30;;;;;;;1.77;0.90;;;;;;;5.78;76.87;97397.47;342171;28;1848;-84
2022/01/09 00:29:42;;;;;;;2.17;0.82;;;;;;;5.68;76.63;97396.28;341069;29;1056;-84
2022/01/09 00:29:54;;;;;;;1.90;0.80;;;;;;;5.67;77.29;97397.16;341595;29;738;-83
2022/01/09 00:30:09;;;;;;;2.00;0.90;;;;;;;5.47;77.22;97398.13;340189;29;1141;-83
2022/01/09 00:30:23;;;;;;;2.45;1.02;;;;;;;5.55;77.45;97391.72;341066;29;1258;-83
2022/01/09 00:30:35;;;;;;;2.30;1.10;;;;;;;5.51;77.44;97390.16;341125;29;1240;-84
2022/01/09 00:30:47;;;;;;;1.20;0.95;;;;;;;5.46;78.13;97392.16;341017;29;1139;-84
2022/01/09 00:30:59;;;;;;;1.30;1.00;;;;;;;5.51;77.20;97395.31;341097;29;1036;-84
2022/01/09 00:31:11;;;;;;;1.42;1.08;;;;;;;5.55;77.67;97389.13;341577;29;1366;-83
2022/01/09 00:31:23;;;;;;;2.28;1.60;;;;;;;5.56;77.00;97390.78;340420;29;1667;-83
2022/01/09 00:31:36;;;;;;;4.15;1.73;;;;;;;5.59;77.39;97393.22;339155;29;898;-83
2022/01/09 00:31:48;;;;;;;4.03;1.30;;;;;;;5.62;77.83;97391.41;339532;29;1694;-84
2022/01/09 00:32:00;;;;;;;1.63;1.10;;;;;;;5.60;77.02;97388.91;340384;29;1091;-83
2022/01/09 00:32:12;;;;;;;1.42;1.10;;;;;;;5.57;77.20;97389.91;340094;29;1214;-83
2022/01/09 00:32:25;;;;;;;1.30;1.02;;;;;;;5.56;77.02;97385.63;340055;29;1208;-83
2022/01/09 00:32:38;;;;;;;1.63;1.08;;;;;;;5.47;77.23;97382.66;340194;29;773;-84
2022/01/09 00:32:57;;;;;;;1.40;1.10;;;;;;;5.60;77.41;97388.91;339820;29;1928;-84
2022/01/09 00:33:09;;;;;;;1.48;1.10;;;;;;;5.54;77.86;97387.47;341466;29;998;-83
2022/01/09 00:33:22;;;;;;;1.60;1.10;;;;;;;5.47;78.17;97383.50;341502;29;765;-84
2022/01/09 00:33:34;;;;;;;1.52;1.00;;;;;;;5.47;78.16;97383.50;343192;28;1238;-84
2022/01/09 00:33:46;;;;;;;1.25;0.90;;;;;;;5.43;77.87;97379.41;342083;28;1080;-84
2022/01/09 00:33:58;;;;;;;1.35;0.98;;;;;;;5.52;77.92;97384.13;341531;28;1242;-84
2022/01/09 00:34:10;;;;;;;1.40;1.00;;;;;;;5.62;78.22;97376.78;342181;28;1031;-84
2022/01/09 00:34:22;;;;;;;1.55;1.00;;;;;;;5.69;77.61;97382.47;342419;28;1082;-84
2022/01/09 00:34:34;;;;;;;1.23;1.00;;;;;;;5.73;77.36;97387.38;342559;28;1091;-84
2022/01/09 00:34:46;;;;;;;1.60;1.00;;;;;;;5.76;77.16;97381.25;343481;28;1039;-84
2022/01/09 00:34:58;;;;;;;1.45;1.00;;;;;;;5.73;76.86;97383.97;341652;28;1678;-84
2022/01/09 00:35:11;;;;;;;1.38;0.98;;;;;;;5.73;77.06;97374.50;340226;29;1538;-84
2022/01/09 00:35:23;;;;;;;1.63;1.05;;;;;;;5.75;76.65;97382.16;340758;29;1502;-84
2022/01/09 00:35:35;;;;;;;1.70;1.00;;;;;;;5.70;77.00;97384.13;341617;28;1285;-84
2022/01/09 00:35:49;;;;;;;1.80;0.98;;;;;;;5.64;78.06;97379.28;342597;28;1093;-84
2022/01/09 00:36:01;;;;;;;1.73;0.90;;;;;;;5.53;77.50;97380.66;344373;28;1195;-84
2022/01/09 00:36:15;;;;;;;1.08;0.85;;;;;;;5.64;77.22;97379.28;346378;28;1032;-83
2022/01/09 00:36:27;;;;;;;1.00;0.90;;;;;;;5.66;77.31;97378.28;345520;28;1210;-84
2022/01/09 00:36:39;;;;;;;1.23;0.90;;;;;;;5.70;76.67;97373.84;345228;28;1191;-84
2022/01/09 00:36:51;;;;;;;1.73;0.93;;;;;;;5.68;76.79;97375.66;345184;28;1086;-84
2022/01/09 00:37:03;;;;;;;1.88;1.00;;;;;;;5.66;77.03;97367.16;344894;28;1262;-84
2022/01/09 00:37:15;;;;;;;1.55;1.00;;;;;;;5.66;77.14;97377.47;345621;28;809;-84
2022/01/09 00:37:27;;;;;;;1.15;0.95;;;;;;;5.62;77.78;97370.81;344488;28;1056;-84
2022/01/09 00:37:40;;;;;;;1.38;1.00;;;;;;;5.64;77.63;97369.81;343774;28;1071;-84
2022/01/09 00:37:52;;;;;;;1.50;1.00;;;;;;;5.68;77.59;97373.06;343946;28;1104;-83
2022/01/09 00:38:06;;;;;;;1.65;1.05;;;;;;;5.67;77.29;97371.38;342522;28;1526;-83
2022/01/09 00:38:19;;;;;;;1.10;1.00;;;;;;;5.68;77.37;97370.50;344014;28;1066;-84
2022/01/09 00:38:31;;;;;;;1.17;1.00;;;;;;;5.63;77.34;97372.44;343526;28;1767;-84
2022/01/09 00:38:43;;;;;;;1.45;1.10;;;;;;;5.63;77.57;97375.03;343793;28;1776;-84
2022/01/09 00:38:55;;;;;;;1.42;1.05;;;;;;;5.60;77.69;97382.00;345654;28;733;-84
2022/01/09 00:39:07;;;;;;;1.42;1.02;;;;;;;5.56;77.89;97380.50;342942;28;1037;-84
2022/01/09 00:39:19;;;;;;;1.08;0.90;;;;;;;5.63;77.54;97377.59;342889;28;749;-84
2022/01/09 00:39:31;;;;;;;1.17;0.82;;;;;;;5.66;77.63;97372.31;342939;28;741;-84
2022/01/09 00:39:43;;;;;;;1.73;0.90;;;;;;;5.65;77.69;97375.78;341252;29;1197;-84
2022/01/09 00:39:55;;;;;;;2.75;1.00;;;;;;;5.55;77.65;97371.09;341420;28;1911;-84
2022/01/09 00:40:09;;;;;;;3.08;1.10;;;;;;;5.58;77.57;97380.41;341238;29;1213;-84
2022/01/09 00:40:21;;;;;;;2.53;1.08;;;;;;;5.55;77.83;97373.69;341418;28;1228;-84
2022/01/09 00:40:33;;;;;;;1.88;0.90;;;;;;;5.49;77.80;97381.69;341148;29;1212;-84
2022/01/09 00:40:45;;;;;;;1.50;0.85;;;;;;;5.58;77.84;97370.94;341129;29;1114;-84
2022/01/09 00:40:58;;;;;;;1.63;0.80;;;;;;;5.48;78.22;97377.44;341226;28;1090;-83
2022/01/09 00:41:10;;;;;;;2.10;0.90;;;;;;;5.38;78.75;97377.06;343103;28;1095;-83
2022/01/09 00:41:22;;;;;;;1.55;0.90;;;;;;;5.35;78.69;97373.78;342669;28;1165;-83
2022/01/09 00:41:35;;;;;;;2.28;0.90;;;;;;;5.40;78.88;97377.00;343788;28;1111;-83
2022/01/09 00:41:47;;;;;;;2.00;0.85;;;;;;;5.40;78.76;97372.66;342553;28;1530;-84
2022/01/09 00:41:59;;;;;;;1.95;0.95;;;;;;;5.48;78.77;97374.88;343083;28;1046;-84
2022/01/09 00:42:10;;;;;;;1.40;1.05;;;;;;;5.53;78.28;97378.06;342824;28;943;-84
2022/01/09 00:42:22;;;;;;;1.17;1.00;;;;;;;5.63;78.27;97372.44;342919;28;753;-83
2022/01/09 00:42:35;;;;;;;1.00;0.90;;;;;;;5.62;78.33;97381.09;341543;29;726;-84
2022/01/09 00:42:47;;;;;;;1.15;1.00;;;;;;;5.61;77.82;97369.94;341247;29;1163;-84
2022/01/09 00:42:59;;;;;;;1.20;0.90;;;;;;;5.58;77.16;97376.09;342702;28;1156;-84
2022/01/09 00:43:16;;;;;;;1.30;0.90;;;;;;;5.55;77.39;97376.25;342542;28;1142;-84
2022/01/09 00:43:30;;;;;;;1.65;0.90;;;;;;;5.56;77.23;97374.50;342473;28;1234;-84
2022/01/09 00:43:43;;;;;;;1.45;0.80;;;;;;;5.46;78.48;97376.69;342857;28;815;-84
2022/01/09 00:43:56;;;;;;;1.52;0.73;;;;;;;5.52;78.15;97375.56;343585;28;1099;-84
2022/01/09 00:44:08;;;;;;;1.08;0.60;;;;;;;5.43;78.06;97373.41;345564;28;1165;-83
2022/01/09 00:44:20;;;;;;;0.70;0.70;;;;;;;5.44;78.06;97373.34;343740;28;1119;-83
2022/01/09 00:44:32;;;;;;;0.70;0.70;;;;;;;5.49;78.37;97366.22;343927;28;1168;-84
2022/01/09 00:44:44;;;;;;;0.85;0.77;;;;;;;5.56;78.13;97367.59;344240;28;883;-84
2022/01/09 00:44:56;;;;;;;0.80;0.73;;;;;;;5.62;77.95;97370.81;342258;28;1136;-84
2022/01/09 00:45:10;;;;;;;0.93;0.80;;;;;;;5.66;77.76;97367.16;343002;28;733;-84
2022/01/09 00:45:22;;;;;;;1.00;0.88;;;;;;;5.64;77.66;97364.66;342176;28;1984;-84
2022/01/09 00:45:34;;;;;;;1.13;0.90;;;;;;;5.65;78.09;97363.72;342655;28;988;-84
2022/01/09 00:45:46;;;;;;;1.02;0.88;;;;;;;5.62;77.38;97370.81;342025;28;1482;-84
2022/01/09 00:45:58;;;;;;;1.15;0.85;;;;;;;5.68;77.39;97368.75;342811;28;1190;-84
2022/01/09 00:46:10;;;;;;;1.33;0.90;;;;;;;5.66;77.47;97368.00;344244;28;1035;-84
2022/01/09 00:46:22;;;;;;;1.90;0.80;;;;;;;5.56;77.50;97359.88;344842;28;1132;-84
2022/01/09 00:46:34;;;;;;;1.48;0.80;;;;;;;5.60;77.60;97363.97;345544;28;740;-84
2022/01/09 00:46:46;;;;;;;0.85;0.77;;;;;;;5.64;77.20;97366.41;345592;28;1139;-83
2022/01/09 00:47:00;;;;;;;0.95;0.70;;;;;;;5.65;77.99;97366.31;343414;28;1235;-84
2022/01/09 00:47:12;;;;;;;1.00;0.70;;;;;;;5.68;77.72;97362.75;342413;28;1319;-83
2022/01/09 00:47:24;;;;;;;1.15;0.70;;;;;;;5.74;76.95;97365.84;342688;28;1205;-84
2022/01/09 00:47:36;;;;;;;1.10;0.70;;;;;;;5.76;76.68;97365.78;343247;28;1232;-84
2022/01/09 00:47:48;;;;;;;1.70;0.70;;;;;;;5.76;77.03;97366.63;343919;28;1083;-83
2022/01/09 00:48:00;;;;;;;1.60;0.80;;;;;;;5.73;77.37;97355.63;343622;28;1231;-84
2022/01/09 00:48:12;;;;;;;1.40;0.70;;;;;;;5.70;77.01;97358.38;342756;28;1071;-84
2022/01/09 00:48:27;;;;;;;0.65;0.65;;;;;;;5.70;76.95;97363.53;342755;28;1200;-84
2022/01/09 00:48:39;;;;;;;0.82;0.70;;;;;;;5.74;77.03;97360.72;342392;28;1126;-84
2022/01/09 00:48:51;;;;;;;1.20;0.90;;;;;;;5.72;76.79;97362.53;343395;28;1043;-84
2022/01/09 00:49:04;;;;;;;1.38;0.90;;;;;;;5.75;77.32;97366.69;342803;28;1636;-84
2022/01/09 00:49:16;;;;;;;1.38;0.82;;;;;;;5.71;77.77;97354.88;342927;28;1035;-83
2022/01/09 00:49:28;;;;;;;1.77;0.70;;;;;;;5.74;77.24;97359.88;340375;29;1474;-84
2022/01/09 00:49:40;;;;;;;1.73;0.80;;;;;;;5.75;77.47;97356.38;339993;29;1122;-84
2022/01/09 00:49:52;;;;;;;1.52;0.80;;;;;;;5.64;77.82;97363.81;340116;29;1072;-83
2022/01/09 00:50:06;;;;;;;1.25;0.80;;;;;;;5.63;77.86;97367.28;340267;29;1051;-84
2022/01/09 00:50:18;;;;;;;1.15;0.77;;;;;;;5.63;77.87;97362.97;341017;29;1526;-84
2022/01/09 00:50:30;;;;;;;1.35;0.73;;;;;;;5.73;77.79;97359.03;341217;29;1139;-84
2022/01/09 00:50:43;;;;;;;1.52;0.70;;;;;;;5.70;77.56;97355.78;341145;29;1170;-84
2022/01/09 00:50:55;;;;;;;1.45;0.80;;;;;;;5.71;77.34;97349.72;341329;29;1549;-84
2022/01/09 00:51:07;;;;;;;0.90;0.80;;;;;;;5.67;78.03;97358.50;342655;28;1097;-83
2022/01/09 00:51:19;;;;;;;1.30;0.90;;;;;;;5.60;77.15;97353.66;341200;29;1172;-84
2022/01/09 00:51:32;;;;;;;1.30;0.80;;;;;;;5.53;77.90;97354.03;341436;29;897;-84
2022/01/09 00:51:48;;;;;;;1.15;0.63;;;;;;;5.52;77.95;97354.94;341441;28;946;-84
2022/01/09 00:52:00;;;;;;;2.10;0.80;;;;;;;5.49;78.91;97355.09;341996;28;1145;-84
2022/01/09 00:52:12;;;;;;;2.45;0.82;;;;;;;5.47;78.11;97352.56;341089;29;1032;-84
2022/01/09 00:52:24;;;;;;;2.10;0.80;;;;;;;5.36;78.55;97354.84;340150;29;1079;-84
2022/01/09 00:52:37;;;;;;;1.20;0.70;;;;;;;5.41;77.96;97355.44;341211;29;1087;-83
2022/01/09 00:52:49;;;;;;;0.65;0.55;;;;;;;5.48;78.48;97354.25;339171;29;1344;-83
2022/01/09 00:53:01;;;;;;;0.55;0.55;;;;;;;5.48;78.74;97346.53;339064;29;1138;-83
2022/01/09 00:53:13;;;;;;;0.60;0.60;;;;;;;5.41;78.15;97347.72;340393;29;751;-84
2022/01/09 00:53:25;;;;;;;0.82;0.60;;;;;;;5.40;79.06;97346.06;340798;29;1080;-84
2022/01/09 00:53:49;;;;;;;0.95;0.60;;;;;;;5.40;78.57;97353.81;341221;29;1083;-83
2022/01/09 00:54:01;;;;;;;1.08;0.57;;;;;;;5.41;79.03;97347.72;341826;28;1137;-83
2022/01/09 00:54:12;;;;;;;1.60;0.60;;;;;;;5.38;78.96;97347.88;342805;28;1186;-84
2022/01/09 00:54:24;;;;;;;1.20;0.60;;;;;;;5.36;79.07;97339.41;342286;28;1117;-83
2022/01/09 00:54:37;;;;;;;1.35;0.70;;;;;;;5.33;79.27;97348.13;344409;28;1162;-83
2022/01/09 00:54:49;;;;;;;0.90;0.70;;;;;;;5.33;79.73;97342.97;344530;28;864;-83
2022/01/09 00:55:03;;;;;;;1.00;0.80;;;;;;;5.35;79.05;97342.88;343217;28;1160;-83
2022/01/09 00:55:15;;;;;;;0.98;0.80;;;;;;;5.31;78.78;97341.34;342158;28;1453;-83
2022/01/09 00:55:27;;;;;;;0.82;0.75;;;;;;;5.24;79.13;97350.31;341144;29;1071;-83
2022/01/09 00:55:39;;;;;;;0.80;0.70;;;;;;;5.25;79.88;97341.66;341055;29;1380;-83
2022/01/09 00:55:51;;;;;;;0.60;0.60;;;;;;;5.22;79.40;97346.97;341560;29;746;-83
2022/01/09 00:56:03;;;;;;;1.13;0.70;;;;;;;5.22;80.20;97341.81;341676;28;1175;-83
2022/01/09 00:56:15;;;;;;;1.10;0.70;;;;;;;5.15;79.57;97341.25;342614;28;1463;-83
2022/01/09 00:56:27;;;;;;;1.00;0.77;;;;;;;5.15;79.61;97339.53;343486;28;1134;-83
2022/01/09 00:56:39;;;;;;;1.10;0.80;;;;;;;5.13;79.98;97343.94;343447;28;748;-83
2022/01/09 00:56:51;;;;;;;1.02;0.75;;;;;;;5.11;80.32;97348.31;343817;28;1216;-83
2022/01/09 00:57:03;;;;;;;0.93;0.80;;;;;;;5.10;80.19;97344.06;344339;28;1068;-83
2022/01/09 00:57:15;;;;;;;0.90;0.80;;;;;;;5.11;80.08;97339.72;344775;28;1078;-84
2022/01/09 00:57:28;;;;;;;1.05;0.80;;;;;;;5.11;80.46;97350.03;344340;28;737;-84
2022/01/09 00:57:40;;;;;;;1.60;0.80;;;;;;;5.18;79.46;97347.09;344236;28;983;-84
2022/01/09 00:57:52;;;;;;;1.63;0.70;;;;;;;5.17;79.99;97340.28;344064;28;977;-84
2022/01/09 00:58:04;;;;;;;1.48;0.70;;;;;;;5.26;79.67;97340.75;342584;28;1074;-84
2022/01/09 00:58:16;;;;;;;1.02;0.75;;;;;;;5.22;79.69;97341.81;342758;28;1184;-84
2022/01/09 00:58:28;;;;;;;1.00;0.80;;;;;;;5.13;79.64;97338.78;342640;28;749;-84
2022/01/09 00:58:40;;;;;;;1.00;0.70;;;;;;;5.18;79.54;97336.78;341731;28;742;-84
2022/01/09 00:58:54;;;;;;;0.85;0.70;;;;;;;5.26;79.60;97333.03;342846;28;746;-84
2022/01/09 00:59:11;;;;;;;1.00;0.90;;;;;;;5.37;79.83;97330.75;342759;28;962;-83
2022/01/09 00:59:23;;;;;;;1.23;0.98;;;;;;;5.46;79.03;97329.50;343756;28;1050;-83
2022/01/09 00:59:35;;;;;;;0.90;0.80;;;;;;;5.45;79.07;97338.94;342683;28;1055;-84
2022/01/09 00:59:47;;;;;;;0.70;0.65;;;;;;;5.37;79.00;97328.16;344103;28;1053;-84
2022/01/09 01:00:00;;;;;;;0.65;0.60;;;;;;;5.35;79.36;97332.56;342141;28;1268;-84
2022/01/09 01:00:12;;;;;;;0.63;0.63;;;;;;;5.28;79.60;97336.38;342797;28;975;-84
2022/01/09 01:00:24;;;;;;;0.70;0.70;;;;;;;5.29;79.99;97338.03;342597;28;1828;-84
2022/01/09 01:00:39;;;;;;;0.85;0.70;;;;;;;5.33;79.38;97334.38;341615;28;1067;-84
2022/01/09 01:00:52;;;;;;;0.82;0.70;;;;;;;5.39;78.92;97329.78;341358;29;1075;-84
2022/01/09 01:01:04;;;;;;;0.73;0.60;;;;;;;5.47;79.53;97326.81;342361;28;1106;-84
2022/01/09 01:01:16;;;;;;;0.68;0.68;;;;;;;5.54;79.27;97330.75;342281;28;1029;-84
2022/01/09 01:01:28;;;;;;;0.70;0.70;;;;;;;5.60;78.71;97327.06;342788;28;1003;-84
2022/01/09 01:01:41;;;;;;;0.73;0.63;;;;;;;5.60;78.86;97335.63;342410;28;2048;-84